sensor_id;sensor_type;location;lat;lon;timestamp;pressure;altitude;pressure_sealevel;temperature;humidity
76940;BME280;65885;55.848;35.916;2023-04-08T00:00:01;100364.19;;;5.50;58.45
76940;BME280;65885;55.848;35.916;2023-04-08T00:02:29;100374.69;;;5.37;58.70
76940;BME280;65885;55.848;35.916;2023-04-08T00:04:58;100375.63;;;5.20;58.76
76940;BME280;65885;55.848;35.916;2023-04-08T00:07:28;100377.47;;;5.00;58.91
76940;BME280;65885;55.848;35.916;2023-04-08T00:09:56;100378.38;;;4.82;58.96
76940;BME280;65885;55.848;35.916;2023-04-08T00:12:23;100373.22;;;4.64;59.25
76940;BME280;65885;55.848;35.916;2023-04-08T00:14:50;100381.06;;;4.47;59.77
76940;BME280;65885;55.848;35.916;2023-04-08T00:17:17;100375.03;;;4.31;59.35
76940;BME280;65885;55.848;35.916;2023-04-08T00:19:45;100384.56;;;4.17;59.40
76940;BME280;65885;55.848;35.916;2023-04-08T00:22:14;100382.81;;;4.04;60.02
76940;BME280;65885;55.848;35.916;2023-04-08T00:24:42;100379.34;;;4.00;60.23
76940;BME280;65885;55.848;35.916;2023-04-08T00:27:09;100376.75;;;4.06;60.26
76940;BME280;65885;55.848;35.916;2023-04-08T00:29:37;100381.97;;;4.17;59.92
76940;BME280;65885;55.848;35.916;2023-04-08T00:32:05;100380.22;;;4.28;59.88
76940;BME280;65885;55.848;35.916;2023-04-08T00:34:33;100381.94;;;4.40;59.31
76940;BME280;65885;55.848;35.916;2023-04-08T00:37:02;100384.53;;;4.48;59.10
76940;BME280;65885;55.848;35.916;2023-04-08T00:39:31;100387.13;;;4.54;58.97
76940;BME280;65885;55.848;35.916;2023-04-08T00:41:59;100381.91;;;4.58;58.45
76940;BME280;65885;55.848;35.916;2023-04-08T00:44:26;100379.31;;;4.61;58.65
76940;BME280;65885;55.848;35.916;2023-04-08T00:46:53;100381.88;;;4.66;58.56
76940;BME280;65885;55.848;35.916;2023-04-08T00:49:21;100379.28;;;4.66;58.54
76940;BME280;65885;55.848;35.916;2023-04-08T00:51:48;100379.28;;;4.66;58.14
76940;BME280;65885;55.848;35.916;2023-04-08T00:54:16;100384.50;;;4.58;58.20
76940;BME280;65885;55.848;35.916;2023-04-08T00:56:45;100381.94;;;4.41;58.25
76940;BME280;65885;55.848;35.916;2023-04-08T00:59:13;100391.47;;;4.21;58.25
76940;BME280;65885;55.848;35.916;2023-04-08T01:01:43;100383.69;;;3.97;58.45
76940;BME280;65885;55.848;35.916;2023-04-08T01:04:26;100390.56;;;3.75;58.67
76940;BME280;65885;55.848;35.916;2023-04-08T01:06:59;100388.81;;;3.49;59.37
76940;BME280;65885;55.848;35.916;2023-04-08T01:09:31;100397.38;;;3.28;59.92
76940;BME280;65885;55.848;35.916;2023-04-08T01:12:04;100400.75;;;3.09;59.55
76940;BME280;65885;55.848;35.916;2023-04-08T01:14:36;100393.75;;;2.90;60.07
76940;BME280;65885;55.848;35.916;2023-04-08T01:17:06;100396.28;;;2.76;61.10
76940;BME280;65885;55.848;35.916;2023-04-08T01:19:37;100393.66;;;2.71;61.18
76940;BME280;65885;55.848;35.916;2023-04-08T01:22:14;100392.81;;;2.78;61.42
76940;BME280;65885;55.848;35.916;2023-04-08T01:24:46;100392.91;;;2.91;61.44
76940;BME280;65885;55.848;35.916;2023-04-08T01:27:16;100391.25;;;3.03;61.47
76940;BME280;65885;55.848;35.916;2023-04-08T01:29:44;100384.34;;;3.15;61.37
76940;BME280;65885;55.848;35.916;2023-04-08T01:32:13;100390.44;;;3.24;60.83
76940;BME280;65885;55.848;35.916;2023-04-08T01:34:43;100386.16;;;3.32;60.08
76940;BME280;65885;55.848;35.916;2023-04-08T01:37:12;100383.59;;;3.40;60.05
76940;BME280;65885;55.848;35.916;2023-04-08T01:39:41;100388.78;;;3.45;59.49
76940;BME280;65885;55.848;35.916;2023-04-08T01:42:09;100381.88;;;3.50;59.36
76940;BME280;65885;55.848;35.916;2023-04-08T01:44:39;100385.34;;;3.53;59.90
76940;BME280;65885;55.848;35.916;2023-04-08T01:47:08;100388.78;;;3.54;59.88
76940;BME280;65885;55.848;35.916;2023-04-08T01:49:37;100388.81;;;3.48;59.63
76940;BME280;65885;55.848;35.916;2023-04-08T01:52:08;100387.03;;;3.34;59.74
76940;BME280;65885;55.848;35.916;2023-04-08T01:54:35;100386.09;;;3.14;59.78
76940;BME280;65885;55.848;35.916;2023-04-08T01:57:04;100395.50;;;2.94;60.41
76940;BME280;65885;55.848;35.916;2023-04-08T01:59:35;100391.91;;;2.72;60.18
76940;BME280;65885;55.848;35.916;2023-04-08T02:02:07;100391.81;;;2.52;60.81
76940;BME280;65885;55.848;35.916;2023-04-08T02:04:35;100394.25;;;2.32;61.20
76940;BME280;65885;55.848;35.916;2023-04-08T02:07:03;100401.03;;;2.13;60.93
76940;BME280;65885;55.848;35.916;2023-04-08T02:09:31;100392.28;;;1.98;61.75
76940;BME280;65885;55.848;35.916;2023-04-08T02:11:59;100399.91;;;1.85;61.78
76940;BME280;65885;55.848;35.916;2023-04-08T02:14:27;100395.59;;;1.86;62.56
76940;BME280;65885;55.848;35.916;2023-04-08T02:17:01;100399.13;;;1.95;63.16
76940;BME280;65885;55.848;35.916;2023-04-08T02:19:35;100401.84;;;2.11;62.58
76940;BME280;65885;55.848;35.916;2023-04-08T02:22:11;100400.25;;;2.27;62.25
76940;BME280;65885;55.848;35.916;2023-04-08T02:24:43;100393.44;;;2.39;61.60
76940;BME280;65885;55.848;35.916;2023-04-08T02:27:12;100400.44;;;2.53;61.57
76940;BME280;65885;55.848;35.916;2023-04-08T02:29:40;100397.03;;;2.61;61.01
76940;BME280;65885;55.848;35.916;2023-04-08T02:32:10;100398.81;;;2.71;61.23
76940;BME280;65885;55.848;35.916;2023-04-08T02:34:40;100398.00;;;2.78;60.92
76940;BME280;65885;55.848;35.916;2023-04-08T02:37:09;100401.50;;;2.84;60.71
76940;BME280;65885;55.848;35.916;2023-04-08T02:39:36;100404.13;;;2.91;60.41
76940;BME280;65885;55.848;35.916;2023-04-08T02:42:04;100405.88;;;2.97;60.37
76940;BME280;65885;55.848;35.916;2023-04-08T02:44:31;100405.03;;;2.98;60.27
76940;BME280;65885;55.848;35.916;2023-04-08T02:46:58;100404.13;;;2.90;59.82
76940;BME280;65885;55.848;35.916;2023-04-08T02:49:26;100404.91;;;2.75;60.06
76940;BME280;65885;55.848;35.916;2023-04-08T02:51:55;100401.31;;;2.56;60.35
76940;BME280;65885;55.848;35.916;2023-04-08T02:54:22;100405.53;;;2.37;60.98
76940;BME280;65885;55.848;35.916;2023-04-08T02:56:50;100407.94;;;2.17;61.55
76940;BME280;65885;55.848;35.916;2023-04-08T02:59:18;100404.34;;;1.99;61.87
76940;BME280;65885;55.848;35.916;2023-04-08T03:01:45;100404.22;;;1.83;62.22
76940;BME280;65885;55.848;35.916;2023-04-08T03:04:13;100398.91;;;1.68;61.76
76940;BME280;65885;55.848;35.916;2023-04-08T03:06:40;100402.22;;;1.56;62.94
76940;BME280;65885;55.848;35.916;2023-04-08T03:09:09;100404.78;;;1.55;63.37
76940;BME280;65885;55.848;35.916;2023-04-08T03:11:36;100410.06;;;1.65;63.57
76940;BME280;65885;55.848;35.916;2023-04-08T03:14:03;100399.03;;;1.82;63.91
76940;BME280;65885;55.848;35.916;2023-04-08T03:16:31;100400.03;;;1.99;63.82
76940;BME280;65885;55.848;35.916;2023-04-08T03:18:58;100407.94;;;2.16;63.51
76940;BME280;65885;55.848;35.916;2023-04-08T03:21:26;100409.78;;;2.34;63.36
76940;BME280;65885;55.848;35.916;2023-04-08T03:23:56;100408.16;;;2.48;62.88
76940;BME280;65885;55.848;35.916;2023-04-08T03:26:25;100412.59;;;2.61;62.12
76940;BME280;65885;55.848;35.916;2023-04-08T03:28:52;100415.25;;;2.73;62.02
76940;BME280;65885;55.848;35.916;2023-04-08T03:31:20;100421.34;;;2.86;62.05
76940;BME280;65885;55.848;35.916;2023-04-08T03:33:47;100411.06;;;2.95;62.18
76940;BME280;65885;55.848;35.916;2023-04-08T03:36:14;100413.69;;;3.04;62.01
76940;BME280;65885;55.848;35.916;2023-04-08T03:38:43;100410.25;;;3.05;61.42
76940;BME280;65885;55.848;35.916;2023-04-08T03:41:10;100409.34;;;2.99;61.93
76940;BME280;65885;55.848;35.916;2023-04-08T03:43:39;100417.94;;;2.89;61.73
76940;BME280;65885;55.848;35.916;2023-04-08T03:46:06;100410.09;;;2.75;62.46
76940;BME280;65885;55.848;35.916;2023-04-08T03:48:34;100411.72;;;2.62;62.83
76940;BME280;65885;55.848;35.916;2023-04-08T03:51:01;100411.66;;;2.50;62.90
76940;BME280;65885;55.848;35.916;2023-04-08T03:53:28;100410.69;;;2.39;63.53
76940;BME280;65885;55.848;35.916;2023-04-08T03:55:56;100418.41;;;2.31;63.52
76940;BME280;65885;55.848;35.916;2023-04-08T03:58:23;100415.75;;;2.23;63.72
76940;BME280;65885;55.848;35.916;2023-04-08T04:00:52;100411.44;;;2.22;64.63
76940;BME280;65885;55.848;35.916;2023-04-08T04:03:20;100418.41;;;2.33;64.44
76940;BME280;65885;55.848;35.916;2023-04-08T04:05:47;100422.88;;;2.52;64.81
76940;BME280;65885;55.848;35.916;2023-04-08T04:08:14;100418.72;;;2.74;64.67
76940;BME280;65885;55.848;35.916;2023-04-08T04:10:41;100424.88;;;2.96;64.03
76940;BME280;65885;55.848;35.916;2023-04-08T04:13:09;100423.25;;;3.18;64.10
76940;BME280;65885;55.848;35.916;2023-04-08T04:15:37;100422.47;;;3.37;63.59
76940;BME280;65885;55.848;35.916;2023-04-08T04:18:07;100426.00;;;3.56;63.12
76940;BME280;65885;55.848;35.916;2023-04-08T04:20:34;100427.75;;;3.74;63.15
76940;BME280;65885;55.848;35.916;2023-04-08T04:23:03;100425.19;;;3.90;62.62
76940;BME280;65885;55.848;35.916;2023-04-08T04:25:31;100420.00;;;4.06;62.87
76940;BME280;65885;55.848;35.916;2023-04-08T04:27:58;100426.06;;;4.23;62.86
76940;BME280;65885;55.848;35.916;2023-04-08T04:30:26;100419.16;;;4.33;62.76
76940;BME280;65885;55.848;35.916;2023-04-08T04:32:54;100420.00;;;4.36;62.36
76940;BME280;65885;55.848;35.916;2023-04-08T04:35:24;100426.94;;;4.34;62.94
76940;BME280;65885;55.848;35.916;2023-04-08T04:37:51;100421.78;;;4.31;63.28
76940;BME280;65885;55.848;35.916;2023-04-08T04:40:19;100431.25;;;4.29;63.64
76940;BME280;65885;55.848;35.916;2023-04-08T04:42:46;100426.94;;;4.28;64.16
76940;BME280;65885;55.848;35.916;2023-04-08T04:45:14;100424.34;;;4.28;64.42
76940;BME280;65885;55.848;35.916;2023-04-08T04:47:41;100425.22;;;4.29;64.46
76940;BME280;65885;55.848;35.916;2023-04-08T04:50:09;100435.63;;;4.32;64.87
76940;BME280;65885;55.848;35.916;2023-04-08T04:52:38;100426.94;;;4.34;65.05
76940;BME280;65885;55.848;35.916;2023-04-08T04:55:06;100430.41;;;4.39;65.33
76940;BME280;65885;55.848;35.916;2023-04-08T04:57:34;100435.59;;;4.52;65.56
76940;BME280;65885;55.848;35.916;2023-04-08T05:00:01;100424.28;;;4.74;65.79
76940;BME280;65885;55.848;35.916;2023-04-08T05:02:30;100425.09;;;5.07;65.60
76940;BME280;65885;55.848;35.916;2023-04-08T05:04:57;100420.63;;;5.39;65.12
76940;BME280;65885;55.848;35.916;2023-04-08T05:07:25;100433.44;;;5.73;64.20
76940;BME280;65885;55.848;35.916;2023-04-08T05:09:54;100431.53;;;6.08;63.90
76940;BME280;65885;55.848;35.916;2023-04-08T05:12:22;100435.59;;;6.42;62.99
76940;BME280;65885;55.848;35.916;2023-04-08T05:14:50;100431.84;;;6.73;61.44
76940;BME280;65885;55.848;35.916;2023-04-08T05:17:18;100428.91;;;7.04;61.03
76940;BME280;65885;55.848;35.916;2023-04-08T05:19:45;100431.19;;;7.31;59.26
76940;BME280;65885;55.848;35.916;2023-04-08T05:22:12;100438.72;;;7.54;59.64
76940;BME280;65885;55.848;35.916;2023-04-08T05:24:40;100440.28;;;7.69;59.58
76940;BME280;65885;55.848;35.916;2023-04-08T05:27:10;100438.44;;;7.75;59.37
76940;BME280;65885;55.848;35.916;2023-04-08T05:29:37;100443.66;;;7.78;58.97
76940;BME280;65885;55.848;35.916;2023-04-08T05:32:05;100442.75;;;7.78;59.18
76940;BME280;65885;55.848;35.916;2023-04-08T05:34:32;100445.38;;;7.79;59.04
76940;BME280;65885;55.848;35.916;2023-04-08T05:37:00;100442.75;;;7.79;57.91
76940;BME280;65885;55.848;35.916;2023-04-08T05:39:27;100436.59;;;7.84;59.53
76940;BME280;65885;55.848;35.916;2023-04-08T05:41:55;100443.53;;;7.86;58.07
76940;BME280;65885;55.848;35.916;2023-04-08T05:44:24;100442.50;;;7.96;59.56
76940;BME280;65885;55.848;35.916;2023-04-08T05:46:51;100444.06;;;8.10;59.78
76940;BME280;65885;55.848;35.916;2023-04-08T05:49:20;100435.97;;;8.23;60.20
76940;BME280;65885;55.848;35.916;2023-04-08T05:51:47;100447.84;;;8.46;60.08
76940;BME280;65885;55.848;35.916;2023-04-08T05:54:15;100437.75;;;8.77;62.06
76940;BME280;65885;55.848;35.916;2023-04-08T05:56:42;100440.50;;;9.14;60.72
76940;BME280;65885;55.848;35.916;2023-04-08T05:59:11;100440.63;;;9.51;58.56
76940;BME280;65885;55.848;35.916;2023-04-08T06:01:39;100442.53;;;9.85;56.11
76940;BME280;65885;55.848;35.916;2023-04-08T06:04:07;100440.03;;;10.17;54.97
76940;BME280;65885;55.848;35.916;2023-04-08T06:06:36;100434.00;;;10.51;55.27
76940;BME280;65885;55.848;35.916;2023-04-08T06:09:04;100441.09;;;10.80;54.47
76940;BME280;65885;55.848;35.916;2023-04-08T06:11:31;100436.84;;;11.08;57.19
76940;BME280;65885;55.848;35.916;2023-04-08T06:13:58;100437.00;;;11.33;57.57
76940;BME280;65885;55.848;35.916;2023-04-08T06:16:27;100452.13;;;11.56;57.02
76940;BME280;65885;55.848;35.916;2023-04-08T06:18:56;100444.50;;;11.77;56.06
76940;BME280;65885;55.848;35.916;2023-04-08T06:21:23;100443.25;;;11.90;54.82
76940;BME280;65885;55.848;35.916;2023-04-08T06:23:51;100431.34;;;12.06;56.35
76940;BME280;65885;55.848;35.916;2023-04-08T06:26:18;100435.31;;;12.19;55.07
76940;BME280;65885;55.848;35.916;2023-04-08T06:28:45;100435.88;;;12.29;54.31
76940;BME280;65885;55.848;35.916;2023-04-08T06:31:13;100436.50;;;12.37;54.88
76940;BME280;65885;55.848;35.916;2023-04-08T06:33:41;100435.50;;;12.41;53.98
76940;BME280;65885;55.848;35.916;2023-04-08T06:36:10;100435.44;;;12.43;52.64
76940;BME280;65885;55.848;35.916;2023-04-08T06:38:38;100438.81;;;12.46;52.92
76940;BME280;65885;55.848;35.916;2023-04-08T06:41:06;100442.28;;;12.48;53.92
76940;BME280;65885;55.848;35.916;2023-04-08T06:43:35;100443.06;;;12.50;52.79
76940;BME280;65885;55.848;35.916;2023-04-08T06:46:02;100447.34;;;12.55;52.92
76940;BME280;65885;55.848;35.916;2023-04-08T06:48:31;100441.97;;;12.58;50.85
76940;BME280;65885;55.848;35.916;2023-04-08T06:50:59;100435.66;;;12.62;52.22
76940;BME280;65885;55.848;35.916;2023-04-08T06:53:28;100446.16;;;12.63;50.08
76940;BME280;65885;55.848;35.916;2023-04-08T06:55:57;100443.41;;;12.66;52.53
76940;BME280;65885;55.848;35.916;2023-04-08T06:58:25;100451.13;;;12.72;54.17
76940;BME280;65885;55.848;35.916;2023-04-08T07:00:53;100446.50;;;12.79;53.68
76940;BME280;65885;55.848;35.916;2023-04-08T07:03:21;100443.59;;;12.87;54.50
76940;BME280;65885;55.848;35.916;2023-04-08T07:05:48;100439.91;;;12.92;52.91
76940;BME280;65885;55.848;35.916;2023-04-08T07:08:16;100434.53;;;12.95;52.02
76940;BME280;65885;55.848;35.916;2023-04-08T07:10:44;100439.63;;;13.00;49.88
76940;BME280;65885;55.848;35.916;2023-04-08T07:13:12;100436.94;;;13.01;48.02
76940;BME280;65885;55.848;35.916;2023-04-08T07:15:40;100435.97;;;13.04;46.45
76940;BME280;65885;55.848;35.916;2023-04-08T07:18:08;100435.97;;;13.04;46.06
76940;BME280;65885;55.848;35.916;2023-04-08T07:20:35;100428.66;;;13.12;48.00
76940;BME280;65885;55.848;35.916;2023-04-08T07:23:03;100430.13;;;13.21;49.05
76940;BME280;65885;55.848;35.916;2023-04-08T07:25:32;100431.69;;;13.26;48.04
76940;BME280;65885;55.848;35.916;2023-04-08T07:28:00;100429.63;;;13.35;49.53
76940;BME280;65885;55.848;35.916;2023-04-08T07:30:28;100428.47;;;13.42;48.40
76940;BME280;65885;55.848;35.916;2023-04-08T07:32:55;100429.84;;;13.52;48.61
76940;BME280;65885;55.848;35.916;2023-04-08T07:35:24;100418.72;;;13.67;49.21
76940;BME280;65885;55.848;35.916;2023-04-08T07:37:52;100422.44;;;13.85;48.99
76940;BME280;65885;55.848;35.916;2023-04-08T07:40:19;100420.03;;;14.01;47.65
76940;BME280;65885;55.848;35.916;2023-04-08T07:42:47;100418.38;;;14.20;47.85
76940;BME280;65885;55.848;35.916;2023-04-08T07:45:17;100416.41;;;14.47;46.70
76940;BME280;65885;55.848;35.916;2023-04-08T07:47:44;100425.28;;;14.87;48.28
76940;BME280;65885;55.848;35.916;2023-04-08T07:50:13;100424.97;;;15.34;47.47
76940;BME280;65885;55.848;35.916;2023-04-08T07:52:41;100418.31;;;15.83;46.52
76940;BME280;65885;55.848;35.916;2023-04-08T07:55:08;100423.84;;;16.32;45.03
76940;BME280;65885;55.848;35.916;2023-04-08T07:57:36;100419.38;;;16.69;42.70
76940;BME280;65885;55.848;35.916;2023-04-08T08:00:04;100422.19;;;17.00;44.56
76940;BME280;65885;55.848;35.916;2023-04-08T08:02:34;100416.47;;;17.25;43.80
76940;BME280;65885;55.848;35.916;2023-04-08T08:05:02;100418.19;;;17.42;41.73
76940;BME280;65885;55.848;35.916;2023-04-08T08:07:31;100414.63;;;17.59;40.43
76940;BME280;65885;55.848;35.916;2023-04-08T08:09:58;100412.88;;;17.75;39.79
76940;BME280;65885;55.848;35.916;2023-04-08T08:12:25;100418.97;;;17.93;40.84
76940;BME280;65885;55.848;35.916;2023-04-08T08:14:53;100416.72;;;18.17;42.82
76940;BME280;65885;55.848;35.916;2023-04-08T08:17:23;100418.06;;;18.40;42.06
76940;BME280;65885;55.848;35.916;2023-04-08T08:19:55;100414.75;;;18.66;43.15
76940;BME280;65885;55.848;35.916;2023-04-08T08:22:22;100423.69;;;18.79;39.84
76940;BME280;65885;55.848;35.916;2023-04-08T08:24:55;100413.09;;;18.94;40.43
76940;BME280;65885;55.848;35.916;2023-04-08T08:27:23;100415.50;;;18.98;38.74
76940;BME280;65885;55.848;35.916;2023-04-08T08:29:51;100418.69;;;19.03;39.84
76940;BME280;65885;55.848;35.916;2023-04-08T08:32:18;100417.78;;;19.04;38.50
76940;BME280;65885;55.848;35.916;2023-04-08T08:34:46;100418.63;;;19.05;39.10
76940;BME280;65885;55.848;35.916;2023-04-08T08:37:14;100422.81;;;19.09;39.10
76940;BME280;65885;55.848;35.916;2023-04-08T08:39:42;100409.41;;;19.10;37.31
76940;BME280;65885;55.848;35.916;2023-04-08T08:42:18;100411.41;;;19.21;40.88
76940;BME280;65885;55.848;35.916;2023-04-08T08:44:46;100415.69;;;19.24;38.89
76940;BME280;65885;55.848;35.916;2023-04-08T08:47:14;100407.22;;;19.31;38.83
76940;BME280;65885;55.848;35.916;2023-04-08T08:49:42;100416.53;;;19.38;36.46
76940;BME280;65885;55.848;35.916;2023-04-08T08:52:09;100412.16;;;19.52;37.82
76940;BME280;65885;55.848;35.916;2023-04-08T08:54:39;100399.06;;;19.63;34.97
76940;BME280;65885;55.848;35.916;2023-04-08T08:57:15;100405.81;;;19.68;34.47
76940;BME280;65885;55.848;35.916;2023-04-08T08:59:45;100401.88;;;19.88;38.04
76940;BME280;65885;55.848;35.916;2023-04-08T09:02:26;100403.91;;;20.12;39.96
76940;BME280;65885;55.848;35.916;2023-04-08T09:04:58;100400.84;;;20.31;36.60
76940;BME280;65885;55.848;35.916;2023-04-08T09:07:27;100400.06;;;20.43;35.72
76940;BME280;65885;55.848;35.916;2023-04-08T09:09:57;100396.06;;;20.63;37.86
76940;BME280;65885;55.848;35.916;2023-04-08T09:12:25;100398.13;;;20.72;33.29
76940;BME280;65885;55.848;35.916;2023-04-08T09:15:03;100393.63;;;20.85;34.23
76940;BME280;65885;55.848;35.916;2023-04-08T09:17:31;100387.16;;;21.02;33.77
76940;BME280;65885;55.848;35.916;2023-04-08T09:20:04;100392.16;;;21.06;32.77
76940;BME280;65885;55.848;35.916;2023-04-08T09:22:34;100391.72;;;21.25;36.52
76940;BME280;65885;55.848;35.916;2023-04-08T09:25:26;100395.38;;;21.37;33.19
76940;BME280;65885;55.848;35.916;2023-04-08T09:27:54;100383.16;;;21.46;34.35
76940;BME280;65885;55.848;35.916;2023-04-08T09:30:25;100389.47;;;21.57;34.39
76940;BME280;65885;55.848;35.916;2023-04-08T09:32:54;100389.94;;;21.75;36.33
76940;BME280;65885;55.848;35.916;2023-04-08T09:35:23;100372.69;;;21.92;36.90
76940;BME280;65885;55.848;35.916;2023-04-08T09:37:51;100390.06;;;21.98;32.71
76940;BME280;65885;55.848;35.916;2023-04-08T09:40:18;100379.78;;;22.04;35.40
76940;BME280;65885;55.848;35.916;2023-04-08T09:42:53;100386.41;;;22.11;34.18
76940;BME280;65885;55.848;35.916;2023-04-08T09:45:21;100375.84;;;22.10;32.93
76940;BME280;65885;55.848;35.916;2023-04-08T09:47:56;100385.56;;;22.11;34.26
76940;BME280;65885;55.848;35.916;2023-04-08T09:50:26;100373.59;;;22.04;31.71
76940;BME280;65885;55.848;35.916;2023-04-08T09:53:00;100380.72;;;21.92;31.10
76940;BME280;65885;55.848;35.916;2023-04-08T09:55:29;100372.78;;;21.91;32.98
76940;BME280;65885;55.848;35.916;2023-04-08T09:58:07;100372.75;;;22.03;35.78
76940;BME280;65885;55.848;35.916;2023-04-08T10:00:42;100378.94;;;22.04;31.63
76940;BME280;65885;55.848;35.916;2023-04-08T10:03:24;100371.16;;;22.01;31.84
76940;BME280;65885;55.848;35.916;2023-04-08T10:05:53;100372.59;;;21.94;32.10
76940;BME280;65885;55.848;35.916;2023-04-08T10:08:22;100365.75;;;21.89;30.83
76940;BME280;65885;55.848;35.916;2023-04-08T10:10:51;100365.88;;;21.88;32.12
76940;BME280;65885;55.848;35.916;2023-04-08T10:13:21;100363.59;;;21.95;33.54
76940;BME280;65885;55.848;35.916;2023-04-08T10:15:49;100362.09;;;21.91;31.12
76940;BME280;65885;55.848;35.916;2023-04-08T10:18:32;100365.53;;;21.93;33.00
76940;BME280;65885;55.848;35.916;2023-04-08T10:20:59;100366.50;;;21.92;30.16
76940;BME280;65885;55.848;35.916;2023-04-08T10:23:54;100362.63;;;21.96;32.05
76940;BME280;65885;55.848;35.916;2023-04-08T10:26:31;100361.41;;;22.12;35.94
76940;BME280;65885;55.848;35.916;2023-04-08T10:29:31;100365.59;;;22.28;34.43
76940;BME280;65885;55.848;35.916;2023-04-08T10:31:59;100362.53;;;22.45;35.67
76940;BME280;65885;55.848;35.916;2023-04-08T10:34:28;100361.94;;;22.64;37.50
76940;BME280;65885;55.848;35.916;2023-04-08T10:36:56;100362.34;;;22.82;36.25
76940;BME280;65885;55.848;35.916;2023-04-08T10:39:29;100362.25;;;22.83;31.80
76940;BME280;65885;55.848;35.916;2023-04-08T10:42:00;100366.97;;;22.68;28.62
76940;BME280;65885;55.848;35.916;2023-04-08T10:44:28;100354.50;;;22.56;30.34
76940;BME280;65885;55.848;35.916;2023-04-08T10:46:57;100363.25;;;22.47;30.02
76940;BME280;65885;55.848;35.916;2023-04-08T10:49:31;100349.25;;;22.43;31.38
76940;BME280;65885;55.848;35.916;2023-04-08T10:51:59;100350.34;;;22.41;30.30
76940;BME280;65885;55.848;35.916;2023-04-08T10:54:27;100351.81;;;22.45;33.79
76940;BME280;65885;55.848;35.916;2023-04-08T10:56:54;100358.50;;;22.51;31.14
76940;BME280;65885;55.848;35.916;2023-04-08T10:59:27;100351.81;;;22.45;28.86
76940;BME280;65885;55.848;35.916;2023-04-08T11:01:56;100343.22;;;22.53;31.58
76940;BME280;65885;55.848;35.916;2023-04-08T11:04:24;100345.66;;;22.67;32.02
76940;BME280;65885;55.848;35.916;2023-04-08T11:06:52;100340.84;;;22.83;34.08
76940;BME280;65885;55.848;35.916;2023-04-08T11:09:20;100320.69;;;22.90;29.70
76940;BME280;65885;55.848;35.916;2023-04-08T11:11:47;100329.69;;;23.12;31.53
76940;BME280;65885;55.848;35.916;2023-04-08T11:14:15;100322.25;;;23.38;29.60
76940;BME280;65885;55.848;35.916;2023-04-08T11:16:46;100319.16;;;23.65;32.00
76940;BME280;65885;55.848;35.916;2023-04-08T11:19:15;100311.06;;;23.87;30.78
76940;BME280;65885;55.848;35.916;2023-04-08T11:21:43;100318.09;;;23.99;28.93
76940;BME280;65885;55.848;35.916;2023-04-08T11:24:11;100316.28;;;24.00;30.03
76940;BME280;65885;55.848;35.916;2023-04-08T11:26:39;100307.94;;;24.14;32.10
76940;BME280;65885;55.848;35.916;2023-04-08T11:29:10;100312.25;;;24.26;30.21
76940;BME280;65885;55.848;35.916;2023-04-08T11:31:40;100308.59;;;24.27;27.17
76940;BME280;65885;55.848;35.916;2023-04-08T11:34:07;100305.97;;;24.16;27.92
76940;BME280;65885;55.848;35.916;2023-04-08T11:36:39;100305.03;;;24.06;28.35
76940;BME280;65885;55.848;35.916;2023-04-08T11:39:08;100307.31;;;23.78;27.16
76940;BME280;65885;55.848;35.916;2023-04-08T11:41:37;100305.91;;;23.63;27.90
76940;BME280;65885;55.848;35.916;2023-04-08T11:44:05;100291.78;;;23.50;27.44
76940;BME280;65885;55.848;35.916;2023-04-08T11:46:33;100302.41;;;23.51;28.97
76940;BME280;65885;55.848;35.916;2023-04-08T11:49:02;100296.41;;;23.48;27.42
76940;BME280;65885;55.848;35.916;2023-04-08T11:51:31;100303.59;;;23.47;27.22
76940;BME280;65885;55.848;35.916;2023-04-08T11:54:03;100298.59;;;23.65;30.78
76940;BME280;65885;55.848;35.916;2023-04-08T11:56:43;100294.88;;;23.89;29.59
76940;BME280;65885;55.848;35.916;2023-04-08T11:59:11;100291.78;;;24.04;28.98
76940;BME280;65885;55.848;35.916;2023-04-08T12:01:38;100287.41;;;24.03;26.61
76940;BME280;65885;55.848;35.916;2023-04-08T12:04:06;100286.41;;;24.04;30.09
76940;BME280;65885;55.848;35.916;2023-04-08T12:06:34;100287.59;;;24.12;28.41
76940;BME280;65885;55.848;35.916;2023-04-08T12:09:03;100287.66;;;24.21;30.47
76940;BME280;65885;55.848;35.916;2023-04-08T12:11:32;100287.81;;;24.41;32.18
76940;BME280;65885;55.848;35.916;2023-04-08T12:14:00;100285.66;;;24.55;29.23
76940;BME280;65885;55.848;35.916;2023-04-08T12:16:28;100279.50;;;24.65;29.34
76940;BME280;65885;55.848;35.916;2023-04-08T12:18:55;100278.19;;;24.59;28.58
76940;BME280;65885;55.848;35.916;2023-04-08T12:21:23;100278.19;;;24.59;28.87
76940;BME280;65885;55.848;35.916;2023-04-08T12:23:52;100275.50;;;24.59;27.67
76940;BME280;65885;55.848;35.916;2023-04-08T12:26:21;100283.09;;;24.54;26.81
76940;BME280;65885;55.848;35.916;2023-04-08T12:28:49;100263.28;;;24.45;28.12
76940;BME280;65885;55.848;35.916;2023-04-08T12:31:17;100272.97;;;24.37;28.74
76940;BME280;65885;55.848;35.916;2023-04-08T12:33:44;100274.44;;;24.29;29.57
76940;BME280;65885;55.848;35.916;2023-04-08T12:36:12;100269.38;;;24.26;28.80
76940;BME280;65885;55.848;35.916;2023-04-08T12:38:40;100268.25;;;24.29;30.90
76940;BME280;65885;55.848;35.916;2023-04-08T12:41:07;100263.88;;;24.28;29.18
76940;BME280;65885;55.848;35.916;2023-04-08T12:43:36;100270.00;;;24.19;29.48
76940;BME280;65885;55.848;35.916;2023-04-08T12:46:04;100264.66;;;24.19;30.30
76940;BME280;65885;55.848;35.916;2023-04-08T12:48:32;100263.91;;;24.17;29.52
76940;BME280;65885;55.848;35.916;2023-04-08T12:50:59;100270.53;;;24.13;30.45
76940;BME280;65885;55.848;35.916;2023-04-08T12:53:26;100264.84;;;24.06;29.21